METAR Data
IDs: Format: Raw Decoded Include TAF

Data at: 1007 UTC 28 Sep 2021

LBWN 281000Z 12013KT 9999 BKN034 OVC043 19/11 Q1020 NOSIG